createdAt,value
2022-08-18T00:04:57.069Z,23.5
2022-08-18T00:09:50.556Z,23.2
2022-08-18T00:14:53.294Z,23.1
2022-08-18T00:19:56.111Z,23.1
2022-08-18T00:24:58.647Z,23
2022-08-18T00:30:01.563Z,23
2022-08-18T00:35:04.131Z,22.9
2022-08-18T00:40:08.004Z,22.8
2022-08-18T00:45:10.806Z,22.8
2022-08-18T00:50:17.395Z,22.7
2022-08-18T00:55:22.888Z,22.7
2022-08-18T01:00:25.437Z,22.7
2022-08-18T01:05:28.110Z,22.7
2022-08-18T01:10:30.526Z,22.7
2022-08-18T01:15:33.075Z,22.5
2022-08-18T01:20:37.308Z,22.4
2022-08-18T01:25:39.976Z,22.4
2022-08-18T01:30:42.316Z,22.4
2022-08-18T01:35:45.406Z,22.1
2022-08-18T01:41:31.712Z,22
2022-08-18T01:45:55.027Z,22
2022-08-18T01:50:57.688Z,22
2022-08-18T01:56:00.006Z,21.9
2022-08-18T02:01:02.676Z,21.8
2022-08-18T02:06:06.222Z,21.6
2022-08-18T02:11:09.751Z,21.6
2022-08-18T02:16:12.341Z,21.5
2022-08-18T02:21:21.114Z,21.4
2022-08-18T02:26:24.008Z,21.3
2022-08-18T02:31:26.636Z,21.2
2022-08-18T02:36:29.485Z,21.2
2022-08-18T02:41:33.415Z,21.1
2022-08-18T02:46:36.181Z,21
2022-08-18T02:51:39.030Z,21.1
2022-08-18T02:56:44.957Z,20.9
2022-08-18T03:01:50.605Z,20.8
2022-08-18T03:06:53.351Z,20.7
2022-08-18T03:11:56.974Z,20.8
2022-08-18T03:16:59.564Z,20.7
2022-08-18T03:22:27.908Z,20.7
2022-08-18T03:27:02.963Z,20.7
2022-08-18T03:32:05.305Z,20.6
2022-08-18T03:37:07.976Z,20.5
2022-08-18T03:42:11.128Z,20.4
2022-08-18T03:47:13.681Z,20.4
2022-08-18T03:52:18.227Z,20.4
2022-08-18T03:57:21.819Z,20.4
2022-08-18T04:02:27.013Z,20.4
2022-08-18T04:07:29.593Z,20.4
2022-08-18T04:12:32.458Z,20.5
2022-08-18T04:17:34.950Z,20.4
2022-08-18T04:22:36.031Z,20.9
2022-08-18T04:27:38.809Z,20.9
2022-08-18T04:32:41.399Z,21.3
2022-08-18T04:37:44.124Z,22.1
2022-08-18T04:42:46.749Z,22.5
2022-08-18T04:47:49.581Z,22.9
2022-08-18T04:52:53.164Z,23.1
2022-08-18T04:57:55.878Z,23.5
2022-08-18T05:02:58.270Z,23.5
2022-08-18T05:08:01.634Z,24.4
2022-08-18T05:13:04.503Z,24.2
2022-08-18T05:18:14.489Z,24.7
2022-08-18T05:23:11.939Z,25.1
2022-08-18T05:28:15.983Z,25.5
2022-08-18T05:33:18.479Z,25.5
2022-08-18T05:38:21.265Z,25.7
2022-08-18T05:43:25.267Z,26.6
2022-08-18T05:48:27.544Z,26.5
2022-08-18T05:53:36.452Z,27.1
2022-08-18T05:58:35.775Z,27.1
2022-08-18T06:03:49.032Z,27.2
2022-08-18T06:08:42.338Z,27.7
2022-08-18T06:13:45.106Z,27.6
2022-08-18T06:18:48.064Z,27.9
2022-08-18T06:23:50.452Z,28.5
2022-08-18T06:28:52.767Z,29
2022-08-18T06:33:55.057Z,28.9
2022-08-18T06:38:57.472Z,29.2
2022-08-18T06:44:00.235Z,29.6
2022-08-18T06:49:03.150Z,30.2
2022-08-18T06:54:05.389Z,30.1
2022-08-18T06:59:07.808Z,30.5
2022-08-18T07:04:12.745Z,31.5
2022-08-18T07:09:15.051Z,31.5
2022-08-18T07:14:19.413Z,31.4
2022-08-18T07:19:21.676Z,31.4
2022-08-18T07:24:27.474Z,31.4
2022-08-18T07:29:30.125Z,31.3
2022-08-18T07:34:33.168Z,32.4
2022-08-18T07:39:35.940Z,32.4
2022-08-18T07:44:38.709Z,32.3
2022-08-18T07:50:57.777Z,31.9
2022-08-18T07:54:52.445Z,32.9
2022-08-18T07:59:44.705Z,32.9
2022-08-18T08:04:49.401Z,33.4
2022-08-18T08:09:56.255Z,33.6
2022-08-18T08:14:58.988Z,33.6
2022-08-18T08:20:06.912Z,34.5
2022-08-18T08:25:47.823Z,35.1
2022-08-18T08:30:10.493Z,35
2022-08-18T08:35:52.140Z,36.1
2022-08-18T08:40:15.732Z,37
2022-08-18T08:45:18.552Z,36.7
2022-08-18T08:50:21.822Z,36.6
2022-08-18T08:55:24.132Z,36.5
2022-08-18T09:00:26.991Z,36.9
2022-08-18T09:05:29.337Z,37.3
2022-08-18T09:10:31.871Z,39.5
2022-08-18T09:15:35.787Z,39.9
2022-08-18T09:20:38.499Z,39.5
2022-08-18T09:25:41.651Z,38.7
2022-08-18T09:30:45.097Z,37.9
2022-08-18T09:35:58.898Z,40.1
2022-08-18T09:41:08.487Z,41.1
2022-08-18T13:04:54.024Z,40.1
2022-08-18T13:06:07.946Z,39.1
2022-08-18T13:11:26.679Z,38.6
2022-08-18T13:16:53.693Z,38.3
2022-08-18T13:21:18.638Z,38.9
2022-08-18T13:26:22.095Z,38.6
2022-08-18T13:31:25.479Z,38.1
2022-08-18T13:36:30.883Z,37.2
2022-08-18T13:41:35.470Z,37.1
2022-08-18T13:46:41.899Z,36.9
2022-08-18T13:51:44.975Z,36.6
2022-08-18T13:56:54.051Z,36.9
2022-08-18T14:01:57.633Z,37.4
2022-08-18T14:07:11.042Z,37.7
2022-08-18T14:12:03.209Z,37.9
2022-08-18T14:17:09.372Z,38.1
2022-08-18T14:22:13.422Z,38.1
2022-08-18T14:27:16.323Z,38.1
2022-08-18T14:32:30.591Z,38.1
2022-08-18T14:37:23.358Z,38.2
2022-08-18T14:42:55.556Z,38.1
2022-08-18T14:47:38.429Z,38.2
2022-08-18T14:52:32.450Z,37.7
2022-08-18T14:57:37.288Z,37
2022-08-18T15:02:44.328Z,36.6
2022-08-18T15:07:49.228Z,36.4
2022-08-18T15:12:52.812Z,36.5
2022-08-18T15:17:58.771Z,36.6
2022-08-18T15:23:01.997Z,36.3
2022-08-18T15:28:21.016Z,35.9
2022-08-18T15:33:16.795Z,36
2022-08-18T15:38:27.355Z,36
2022-08-18T15:43:33.983Z,36
2022-08-18T15:48:37.662Z,36
2022-08-18T15:53:50.091Z,35.9
2022-08-18T15:58:43.865Z,35.7
2022-08-18T16:03:52.657Z,35.5
2022-08-18T16:08:56.816Z,35.4
2022-08-18T16:13:59.271Z,35.3
2022-08-18T16:19:02.007Z,35.2
2022-08-18T16:24:04.869Z,35.1
2022-08-18T16:29:07.480Z,35.1
2022-08-18T16:34:09.800Z,35
2022-08-18T16:39:14.011Z,34.9
2022-08-18T16:44:17.754Z,34.8
2022-08-18T16:49:20.354Z,34.6
2022-08-18T16:54:22.608Z,34.6
2022-08-18T16:59:25.994Z,34.1
2022-08-18T17:04:28.760Z,34.2
2022-08-18T17:09:31.355Z,33.7
2022-08-18T17:14:34.567Z,33.4
2022-08-18T17:24:50.550Z,33
2022-08-18T17:29:42.900Z,33
2022-08-18T17:34:45.560Z,32.5
2022-08-18T17:39:48.638Z,32.3
2022-08-18T17:44:56.282Z,32.1
2022-08-18T17:50:29.994Z,31.8
2022-08-18T17:55:02.718Z,31.8
2022-08-18T18:00:05.009Z,31.7
2022-08-18T18:05:07.257Z,31.6
2022-08-18T18:10:11.299Z,31.5
2022-08-18T18:15:14.182Z,31.5
2022-08-18T18:20:17.684Z,31.4
2022-08-18T18:25:20.012Z,31.3
2022-08-18T18:30:30.933Z,31.2
2022-08-18T18:35:28.965Z,31.1
2022-08-18T18:40:31.291Z,31.1
2022-08-18T18:45:33.806Z,30.9
2022-08-18T18:50:36.830Z,30.7
2022-08-18T18:55:39.289Z,30.6
2022-08-18T19:00:41.978Z,30.4
2022-08-18T19:05:45.199Z,30.1
2022-08-18T19:10:47.841Z,30.1
2022-08-18T19:15:50.727Z,29.6
2022-08-18T19:22:07.932Z,29.4
2022-08-18T19:26:00.635Z,29.3
2022-08-18T19:31:10.879Z,29.4
2022-08-18T19:36:21.876Z,29.3
2022-08-18T19:41:22.284Z,29.3
2022-08-18T19:46:25.228Z,29.3
2022-08-18T19:51:27.796Z,29.3
2022-08-18T19:56:30.073Z,29.3
2022-08-18T20:01:33.694Z,29.1
2022-08-18T20:06:38.271Z,29
2022-08-18T20:11:44.325Z,28.9
2022-08-18T20:16:47.275Z,28.8
2022-08-18T20:22:24.632Z,28.7
2022-08-18T20:27:17.462Z,28.5
2022-08-18T20:32:20.698Z,28.5
2022-08-18T20:37:27.232Z,28.4
2022-08-18T20:42:31.840Z,28.4
2022-08-18T20:47:36.066Z,28.4
2022-08-18T20:52:40.521Z,28.4
2022-08-18T20:57:45.935Z,28.3
2022-08-18T21:02:48.703Z,28.2
2022-08-18T21:07:51.741Z,28.2
2022-08-18T21:12:55.512Z,28.1
2022-08-18T21:17:59.193Z,28.1
2022-08-18T21:23:01.850Z,28.1
2022-08-18T21:28:04.745Z,28.3
2022-08-18T21:33:07.011Z,28.3
2022-08-18T21:38:09.440Z,28.2
2022-08-18T21:43:12.368Z,28
2022-08-18T21:48:14.918Z,27.9
2022-08-18T21:53:17.612Z,27.7
2022-08-18T21:58:34.451Z,27.7
2022-08-18T22:03:27.393Z,27.6
2022-08-18T22:08:31.177Z,27.5
2022-08-18T22:13:34.052Z,27.5
2022-08-18T22:18:37.442Z,27.3
2022-08-18T22:23:43.651Z,27.2
2022-08-18T22:28:46.931Z,27.2
2022-08-18T22:33:49.721Z,27.2
2022-08-18T22:38:52.377Z,27.1
2022-08-18T22:43:56.949Z,27
2022-08-18T22:48:59.275Z,27
2022-08-18T22:54:01.872Z,27
2022-08-18T22:59:20.894Z,26.9
2022-08-18T23:04:13.415Z,26.8
2022-08-18T23:09:16.220Z,26.7
2022-08-18T23:14:18.886Z,26.6
2022-08-18T23:19:21.332Z,26.6
2022-08-18T23:24:24.602Z,26.4
2022-08-18T23:29:26.910Z,26.4
2022-08-18T23:34:29.646Z,26.4
2022-08-18T23:39:32.436Z,26.2
2022-08-18T23:44:35.050Z,26.2
2022-08-18T23:49:37.875Z,26.1
2022-08-18T23:54:40.671Z,26
2022-08-18T23:59:43.251Z,26
